sensor_id;sensor_type;location;lat;lon;timestamp;temperature;humidity
578;DHT22;275;48.492;9.214;2022-10-31T00:00:05;15.90;35.40
578;DHT22;275;48.492;9.214;2022-10-31T00:02:32;15.90;35.50
578;DHT22;275;48.492;9.214;2022-10-31T00:04:58;15.60;36.40
578;DHT22;275;48.492;9.214;2022-10-31T00:07:25;15.40;36.80
578;DHT22;275;48.492;9.214;2022-10-31T00:09:53;15.00;38.10
578;DHT22;275;48.492;9.214;2022-10-31T00:12:20;15.20;37.40
578;DHT22;275;48.492;9.214;2022-10-31T00:14:47;15.80;36.00
578;DHT22;275;48.492;9.214;2022-10-31T00:17:13;16.10;35.20
578;DHT22;275;48.492;9.214;2022-10-31T00:19:40;16.30;34.50
578;DHT22;275;48.492;9.214;2022-10-31T00:22:07;16.60;34.10
578;DHT22;275;48.492;9.214;2022-10-31T00:24:34;16.80;33.50
578;DHT22;275;48.492;9.214;2022-10-31T00:27:02;16.80;34.90
578;DHT22;275;48.492;9.214;2022-10-31T00:29:28;16.60;36.20
578;DHT22;275;48.492;9.214;2022-10-31T00:31:55;16.30;36.90
578;DHT22;275;48.492;9.214;2022-10-31T00:34:22;16.30;37.00
578;DHT22;275;48.492;9.214;2022-10-31T00:36:48;16.20;37.60
578;DHT22;275;48.492;9.214;2022-10-31T00:39:15;16.00;38.30
578;DHT22;275;48.492;9.214;2022-10-31T00:41:42;15.90;38.80
578;DHT22;275;48.492;9.214;2022-10-31T00:44:10;16.00;38.90
578;DHT22;275;48.492;9.214;2022-10-31T00:46:37;15.90;39.00
578;DHT22;275;48.492;9.214;2022-10-31T00:49:03;15.90;39.30
578;DHT22;275;48.492;9.214;2022-10-31T00:51:30;15.80;40.10
578;DHT22;275;48.492;9.214;2022-10-31T00:53:57;15.90;39.90
578;DHT22;275;48.492;9.214;2022-10-31T00:56:23;15.80;39.90
578;DHT22;275;48.492;9.214;2022-10-31T00:58:50;15.90;39.20
578;DHT22;275;48.492;9.214;2022-10-31T01:01:18;15.50;39.10
578;DHT22;275;48.492;9.214;2022-10-31T01:03:45;15.10;39.50
578;DHT22;275;48.492;9.214;2022-10-31T01:06:13;15.40;38.90
578;DHT22;275;48.492;9.214;2022-10-31T01:08:41;15.30;39.20
578;DHT22;275;48.492;9.214;2022-10-31T01:11:11;15.10;39.00
578;DHT22;275;48.492;9.214;2022-10-31T01:13:38;15.30;38.50
578;DHT22;275;48.492;9.214;2022-10-31T01:16:07;15.40;37.90
578;DHT22;275;48.492;9.214;2022-10-31T01:18:35;15.60;37.30
578;DHT22;275;48.492;9.214;2022-10-31T01:21:04;15.70;37.20
578;DHT22;275;48.492;9.214;2022-10-31T01:23:32;15.80;36.90
578;DHT22;275;48.492;9.214;2022-10-31T01:26:05;15.80;37.40
578;DHT22;275;48.492;9.214;2022-10-31T01:28:33;15.90;37.80
578;DHT22;275;48.492;9.214;2022-10-31T01:31:01;16.00;37.90
578;DHT22;275;48.492;9.214;2022-10-31T01:33:28;16.10;37.90
578;DHT22;275;48.492;9.214;2022-10-31T01:35:56;16.00;38.40
578;DHT22;275;48.492;9.214;2022-10-31T01:38:23;15.80;38.80
578;DHT22;275;48.492;9.214;2022-10-31T01:40:50;15.70;39.50
578;DHT22;275;48.492;9.214;2022-10-31T01:43:17;15.70;39.60
578;DHT22;275;48.492;9.214;2022-10-31T01:45:47;15.10;40.80
578;DHT22;275;48.492;9.214;2022-10-31T01:48:19;14.90;41.40
578;DHT22;275;48.492;9.214;2022-10-31T01:50:48;14.70;42.10
578;DHT22;275;48.492;9.214;2022-10-31T01:53:18;14.60;42.40
578;DHT22;275;48.492;9.214;2022-10-31T01:55:46;14.80;42.20
578;DHT22;275;48.492;9.214;2022-10-31T01:58:16;14.80;42.00
578;DHT22;275;48.492;9.214;2022-10-31T02:00:49;14.90;41.90
578;DHT22;275;48.492;9.214;2022-10-31T02:03:17;15.10;41.60
578;DHT22;275;48.492;9.214;2022-10-31T02:05:45;15.00;41.50
578;DHT22;275;48.492;9.214;2022-10-31T02:08:15;15.00;41.50
578;DHT22;275;48.492;9.214;2022-10-31T02:10:44;15.30;41.00
578;DHT22;275;48.492;9.214;2022-10-31T02:13:11;15.30;40.70
578;DHT22;275;48.492;9.214;2022-10-31T02:15:40;15.30;41.00
578;DHT22;275;48.492;9.214;2022-10-31T02:18:07;15.30;41.00
578;DHT22;275;48.492;9.214;2022-10-31T02:20:42;15.20;41.30
578;DHT22;275;48.492;9.214;2022-10-31T02:26:44;15.20;41.30
578;DHT22;275;48.492;9.214;2022-10-31T02:32:29;15.30;40.80
578;DHT22;275;48.492;9.214;2022-10-31T02:35:06;15.20;40.90
578;DHT22;275;48.492;9.214;2022-10-31T02:37:39;15.10;41.00
578;DHT22;275;48.492;9.214;2022-10-31T02:40:15;14.80;41.40
578;DHT22;275;48.492;9.214;2022-10-31T02:42:49;14.90;41.10
578;DHT22;275;48.492;9.214;2022-10-31T02:45:23;14.90;40.80
578;DHT22;275;48.492;9.214;2022-10-31T02:47:54;14.70;41.10
578;DHT22;275;48.492;9.214;2022-10-31T02:50:24;14.80;41.00
578;DHT22;275;48.492;9.214;2022-10-31T02:52:52;14.90;40.50
578;DHT22;275;48.492;9.214;2022-10-31T02:55:49;14.90;40.30
578;DHT22;275;48.492;9.214;2022-10-31T02:58:21;14.80;40.50
578;DHT22;275;48.492;9.214;2022-10-31T03:00:59;14.60;41.20
578;DHT22;275;48.492;9.214;2022-10-31T03:03:35;14.30;41.70
578;DHT22;275;48.492;9.214;2022-10-31T03:06:06;14.30;42.00
578;DHT22;275;48.492;9.214;2022-10-31T03:08:36;14.40;41.40
578;DHT22;275;48.492;9.214;2022-10-31T03:11:07;14.40;41.40
578;DHT22;275;48.492;9.214;2022-10-31T03:13:39;14.70;40.50
578;DHT22;275;48.492;9.214;2022-10-31T03:16:11;14.80;40.10
578;DHT22;275;48.492;9.214;2022-10-31T03:18:43;14.80;40.60
578;DHT22;275;48.492;9.214;2022-10-31T03:21:14;14.50;41.10
578;DHT22;275;48.492;9.214;2022-10-31T03:23:44;14.30;41.40
578;DHT22;275;48.492;9.214;2022-10-31T03:26:13;14.00;42.20
578;DHT22;275;48.492;9.214;2022-10-31T03:28:45;13.70;43.10
578;DHT22;275;48.492;9.214;2022-10-31T03:31:15;13.70;43.10
578;DHT22;275;48.492;9.214;2022-10-31T03:33:45;13.90;42.70
578;DHT22;275;48.492;9.214;2022-10-31T03:36:14;13.80;43.00
578;DHT22;275;48.492;9.214;2022-10-31T03:38:42;13.80;42.90
578;DHT22;275;48.492;9.214;2022-10-31T03:41:13;13.60;43.70
578;DHT22;275;48.492;9.214;2022-10-31T03:43:47;13.40;43.90
578;DHT22;275;48.492;9.214;2022-10-31T03:46:18;13.40;43.90
578;DHT22;275;48.492;9.214;2022-10-31T03:48:46;13.30;44.10
578;DHT22;275;48.492;9.214;2022-10-31T03:51:15;13.50;43.50
578;DHT22;275;48.492;9.214;2022-10-31T03:53:46;13.90;42.40
578;DHT22;275;48.492;9.214;2022-10-31T03:56:21;14.10;42.00
578;DHT22;275;48.492;9.214;2022-10-31T03:58:55;14.10;41.80
578;DHT22;275;48.492;9.214;2022-10-31T04:01:25;14.30;41.40
578;DHT22;275;48.492;9.214;2022-10-31T04:03:56;14.20;41.70
578;DHT22;275;48.492;9.214;2022-10-31T04:06:24;14.00;42.10
578;DHT22;275;48.492;9.214;2022-10-31T04:08:56;14.10;41.70
578;DHT22;275;48.492;9.214;2022-10-31T04:11:28;14.20;41.50
578;DHT22;275;48.492;9.214;2022-10-31T04:13:57;14.40;41.00
578;DHT22;275;48.492;9.214;2022-10-31T04:16:26;14.40;41.00
578;DHT22;275;48.492;9.214;2022-10-31T04:18:55;14.30;41.00
578;DHT22;275;48.492;9.214;2022-10-31T04:21:27;14.30;41.00
578;DHT22;275;48.492;9.214;2022-10-31T04:23:55;14.30;40.90
578;DHT22;275;48.492;9.214;2022-10-31T04:26:22;14.20;41.10
578;DHT22;275;48.492;9.214;2022-10-31T04:28:48;14.20;41.10
578;DHT22;275;48.492;9.214;2022-10-31T04:31:15;14.10;41.20
578;DHT22;275;48.492;9.214;2022-10-31T04:33:42;14.10;41.70
578;DHT22;275;48.492;9.214;2022-10-31T04:36:10;14.10;41.60
578;DHT22;275;48.492;9.214;2022-10-31T04:38:37;14.00;42.00
578;DHT22;275;48.492;9.214;2022-10-31T04:41:04;14.10;42.20
578;DHT22;275;48.492;9.214;2022-10-31T04:43:31;14.00;42.40
578;DHT22;275;48.492;9.214;2022-10-31T04:45:57;13.80;43.30
578;DHT22;275;48.492;9.214;2022-10-31T04:48:24;14.00;42.70
578;DHT22;275;48.492;9.214;2022-10-31T04:50:51;13.70;42.80
578;DHT22;275;48.492;9.214;2022-10-31T04:53:19;13.30;44.10
578;DHT22;275;48.492;9.214;2022-10-31T04:55:46;13.10;44.50
578;DHT22;275;48.492;9.214;2022-10-31T04:58:12;13.20;44.20
578;DHT22;275;48.492;9.214;2022-10-31T05:00:39;13.10;44.30
578;DHT22;275;48.492;9.214;2022-10-31T05:03:06;12.80;45.20
578;DHT22;275;48.492;9.214;2022-10-31T05:05:33;12.60;45.90
578;DHT22;275;48.492;9.214;2022-10-31T05:08:00;12.90;45.50
578;DHT22;275;48.492;9.214;2022-10-31T05:10:29;13.30;43.60
578;DHT22;275;48.492;9.214;2022-10-31T05:12:57;13.80;42.60
578;DHT22;275;48.492;9.214;2022-10-31T05:15:25;13.90;42.10
578;DHT22;275;48.492;9.214;2022-10-31T05:17:53;13.60;43.10
578;DHT22;275;48.492;9.214;2022-10-31T05:20:22;13.00;44.40
578;DHT22;275;48.492;9.214;2022-10-31T05:22:50;13.10;44.30
578;DHT22;275;48.492;9.214;2022-10-31T05:25:19;13.20;43.90
578;DHT22;275;48.492;9.214;2022-10-31T05:27:49;13.10;43.90
578;DHT22;275;48.492;9.214;2022-10-31T05:30:18;12.90;44.50
578;DHT22;275;48.492;9.214;2022-10-31T05:32:47;12.90;44.40
578;DHT22;275;48.492;9.214;2022-10-31T05:35:16;13.20;43.50
578;DHT22;275;48.492;9.214;2022-10-31T05:37:43;13.40;43.10
578;DHT22;275;48.492;9.214;2022-10-31T05:40:11;13.50;42.80
578;DHT22;275;48.492;9.214;2022-10-31T05:42:39;13.50;42.20
578;DHT22;275;48.492;9.214;2022-10-31T05:45:08;13.90;41.40
578;DHT22;275;48.492;9.214;2022-10-31T05:47:35;13.90;41.20
578;DHT22;275;48.492;9.214;2022-10-31T05:50:03;13.80;41.60
578;DHT22;275;48.492;9.214;2022-10-31T05:52:30;13.30;42.80
578;DHT22;275;48.492;9.214;2022-10-31T05:54:56;13.50;42.00
578;DHT22;275;48.492;9.214;2022-10-31T05:57:23;13.50;42.00
578;DHT22;275;48.492;9.214;2022-10-31T05:59:50;13.40;42.40
578;DHT22;275;48.492;9.214;2022-10-31T06:02:19;13.40;42.10
578;DHT22;275;48.492;9.214;2022-10-31T06:04:46;13.50;41.80
578;DHT22;275;48.492;9.214;2022-10-31T06:07:13;13.70;41.20
578;DHT22;275;48.492;9.214;2022-10-31T06:09:40;13.60;41.40
578;DHT22;275;48.492;9.214;2022-10-31T06:12:07;13.80;41.10
578;DHT22;275;48.492;9.214;2022-10-31T06:14:33;13.90;41.10
578;DHT22;275;48.492;9.214;2022-10-31T06:17:00;14.00;41.00
578;DHT22;275;48.492;9.214;2022-10-31T06:19:28;13.90;41.20
578;DHT22;275;48.492;9.214;2022-10-31T06:21:55;13.80;41.50
578;DHT22;275;48.492;9.214;2022-10-31T06:24:22;13.90;41.30
578;DHT22;275;48.492;9.214;2022-10-31T06:26:48;13.90;41.20
578;DHT22;275;48.492;9.214;2022-10-31T06:29:15;13.70;41.70
578;DHT22;275;48.492;9.214;2022-10-31T06:31:42;13.40;42.40
578;DHT22;275;48.492;9.214;2022-10-31T06:34:09;13.50;42.70
578;DHT22;275;48.492;9.214;2022-10-31T06:36:37;13.70;42.20
578;DHT22;275;48.492;9.214;2022-10-31T06:39:04;13.70;42.60
578;DHT22;275;48.492;9.214;2022-10-31T06:41:30;13.80;42.30
578;DHT22;275;48.492;9.214;2022-10-31T06:43:57;14.00;41.70
578;DHT22;275;48.492;9.214;2022-10-31T06:46:24;14.00;41.70
578;DHT22;275;48.492;9.214;2022-10-31T06:48:50;14.10;41.50
578;DHT22;275;48.492;9.214;2022-10-31T06:51:17;14.20;41.10
578;DHT22;275;48.492;9.214;2022-10-31T06:53:45;14.20;41.30
578;DHT22;275;48.492;9.214;2022-10-31T06:56:12;14.40;41.00
578;DHT22;275;48.492;9.214;2022-10-31T06:58:39;14.30;41.30
578;DHT22;275;48.492;9.214;2022-10-31T07:01:06;14.30;41.00
578;DHT22;275;48.492;9.214;2022-10-31T07:03:32;14.30;41.40
578;DHT22;275;48.492;9.214;2022-10-31T07:05:59;14.30;41.20
578;DHT22;275;48.492;9.214;2022-10-31T07:08:26;14.40;41.00
578;DHT22;275;48.492;9.214;2022-10-31T07:10:55;14.40;41.00
578;DHT22;275;48.492;9.214;2022-10-31T07:13:23;14.30;40.90
578;DHT22;275;48.492;9.214;2022-10-31T07:15:52;14.30;40.70
578;DHT22;275;48.492;9.214;2022-10-31T07:18:19;14.70;39.80
578;DHT22;275;48.492;9.214;2022-10-31T07:20:46;14.90;39.00
578;DHT22;275;48.492;9.214;2022-10-31T07:23:14;14.80;39.40
578;DHT22;275;48.492;9.214;2022-10-31T07:25:41;15.00;39.20
578;DHT22;275;48.492;9.214;2022-10-31T07:28:09;15.00;39.00
578;DHT22;275;48.492;9.214;2022-10-31T07:30:36;15.20;38.50
578;DHT22;275;48.492;9.214;2022-10-31T07:33:04;15.20;38.80
578;DHT22;275;48.492;9.214;2022-10-31T07:35:31;15.40;38.50
578;DHT22;275;48.492;9.214;2022-10-31T07:38:06;15.60;37.50
578;DHT22;275;48.492;9.214;2022-10-31T07:40:33;15.80;37.20
578;DHT22;275;48.492;9.214;2022-10-31T07:42:59;16.10;36.80
578;DHT22;275;48.492;9.214;2022-10-31T07:45:27;16.40;36.40
578;DHT22;275;48.492;9.214;2022-10-31T07:47:54;16.30;36.70
578;DHT22;275;48.492;9.214;2022-10-31T07:50:23;16.00;36.90
578;DHT22;275;48.492;9.214;2022-10-31T07:52:58;15.90;37.30
578;DHT22;275;48.492;9.214;2022-10-31T07:55:25;15.60;38.00
578;DHT22;275;48.492;9.214;2022-10-31T07:57:56;14.90;39.90
578;DHT22;275;48.492;9.214;2022-10-31T08:00:22;14.70;40.40
578;DHT22;275;48.492;9.214;2022-10-31T08:02:57;14.80;40.40
578;DHT22;275;48.492;9.214;2022-10-31T08:05:24;15.10;39.60
578;DHT22;275;48.492;9.214;2022-10-31T08:07:51;15.30;39.00
578;DHT22;275;48.492;9.214;2022-10-31T08:10:18;15.30;39.30
578;DHT22;275;48.492;9.214;2022-10-31T08:12:44;15.70;38.30
578;DHT22;275;48.492;9.214;2022-10-31T08:15:11;16.00;37.60
578;DHT22;275;48.492;9.214;2022-10-31T08:17:38;16.00;37.80
578;DHT22;275;48.492;9.214;2022-10-31T08:20:07;16.00;37.70
578;DHT22;275;48.492;9.214;2022-10-31T08:22:34;16.10;37.50
578;DHT22;275;48.492;9.214;2022-10-31T08:25:01;16.40;37.30
578;DHT22;275;48.492;9.214;2022-10-31T08:27:28;16.40;37.20
578;DHT22;275;48.492;9.214;2022-10-31T08:29:55;16.80;36.60
578;DHT22;275;48.492;9.214;2022-10-31T08:32:21;16.90;36.30
578;DHT22;275;48.492;9.214;2022-10-31T08:34:48;17.00;35.70
578;DHT22;275;48.492;9.214;2022-10-31T08:37:16;17.30;35.40
578;DHT22;275;48.492;9.214;2022-10-31T08:39:45;17.50;34.90
578;DHT22;275;48.492;9.214;2022-10-31T08:42:12;17.70;34.60
578;DHT22;275;48.492;9.214;2022-10-31T08:44:39;17.90;34.00
578;DHT22;275;48.492;9.214;2022-10-31T08:47:05;18.00;34.00
578;DHT22;275;48.492;9.214;2022-10-31T08:49:32;18.10;34.00
578;DHT22;275;48.492;9.214;2022-10-31T08:51:59;18.40;33.20
578;DHT22;275;48.492;9.214;2022-10-31T08:54:27;18.40;33.10
578;DHT22;275;48.492;9.214;2022-10-31T08:56:54;18.60;32.90
578;DHT22;275;48.492;9.214;2022-10-31T08:59:21;18.90;32.10
578;DHT22;275;48.492;9.214;2022-10-31T09:01:48;18.70;32.20
578;DHT22;275;48.492;9.214;2022-10-31T09:04:15;18.90;31.70
578;DHT22;275;48.492;9.214;2022-10-31T09:06:42;18.70;32.10
578;DHT22;275;48.492;9.214;2022-10-31T09:09:09;18.60;32.50
578;DHT22;275;48.492;9.214;2022-10-31T09:11:37;19.10;31.90
578;DHT22;275;48.492;9.214;2022-10-31T09:14:04;19.40;31.20
578;DHT22;275;48.492;9.214;2022-10-31T09:16:31;19.60;31.10
578;DHT22;275;48.492;9.214;2022-10-31T09:18:57;19.50;31.10
578;DHT22;275;48.492;9.214;2022-10-31T09:21:24;19.60;31.10
578;DHT22;275;48.492;9.214;2022-10-31T09:23:51;19.50;31.20
578;DHT22;275;48.492;9.214;2022-10-31T09:26:19;20.00;30.70
578;DHT22;275;48.492;9.214;2022-10-31T09:28:47;20.10;30.10
578;DHT22;275;48.492;9.214;2022-10-31T09:31:14;20.20;29.80
578;DHT22;275;48.492;9.214;2022-10-31T09:33:41;20.30;29.80
578;DHT22;275;48.492;9.214;2022-10-31T09:36:08;20.30;29.80
578;DHT22;275;48.492;9.214;2022-10-31T09:38:36;20.00;30.10
578;DHT22;275;48.492;9.214;2022-10-31T09:41:12;19.90;30.40
578;DHT22;275;48.492;9.214;2022-10-31T09:43:50;20.00;30.20
578;DHT22;275;48.492;9.214;2022-10-31T09:46:26;20.60;29.60
578;DHT22;275;48.492;9.214;2022-10-31T09:49:16;20.40;29.80
578;DHT22;275;48.492;9.214;2022-10-31T09:51:49;20.90;29.00
578;DHT22;275;48.492;9.214;2022-10-31T09:54:21;21.40;28.50
578;DHT22;275;48.492;9.214;2022-10-31T09:56:52;21.40;28.50
578;DHT22;275;48.492;9.214;2022-10-31T09:59:25;21.50;28.30
578;DHT22;275;48.492;9.214;2022-10-31T10:01:55;21.70;28.10
578;DHT22;275;48.492;9.214;2022-10-31T10:04:37;21.70;28.20
578;DHT22;275;48.492;9.214;2022-10-31T10:07:14;22.10;27.60
578;DHT22;275;48.492;9.214;2022-10-31T10:09:43;22.10;27.40
578;DHT22;275;48.492;9.214;2022-10-31T10:12:16;21.90;27.90
578;DHT22;275;48.492;9.214;2022-10-31T10:14:57;21.90;27.80
578;DHT22;275;48.492;9.214;2022-10-31T10:17:36;22.00;27.80
578;DHT22;275;48.492;9.214;2022-10-31T10:20:30;22.30;27.50
578;DHT22;275;48.492;9.214;2022-10-31T10:23:13;22.00;27.80
578;DHT22;275;48.492;9.214;2022-10-31T10:25:49;22.10;27.90
578;DHT22;275;48.492;9.214;2022-10-31T10:28:22;22.20;28.00
578;DHT22;275;48.492;9.214;2022-10-31T10:30:55;22.40;27.80
578;DHT22;275;48.492;9.214;2022-10-31T10:33:27;23.00;27.00
578;DHT22;275;48.492;9.214;2022-10-31T10:35:57;22.90;27.20
578;DHT22;275;48.492;9.214;2022-10-31T10:38:28;23.10;27.10
578;DHT22;275;48.492;9.214;2022-10-31T10:40:59;23.30;26.80
578;DHT22;275;48.492;9.214;2022-10-31T10:43:32;23.40;26.80
578;DHT22;275;48.492;9.214;2022-10-31T10:46:18;23.40;26.80
578;DHT22;275;48.492;9.214;2022-10-31T10:49:13;23.30;26.60
578;DHT22;275;48.492;9.214;2022-10-31T10:51:44;23.10;27.20
578;DHT22;275;48.492;9.214;2022-10-31T10:54:40;23.10;27.20
578;DHT22;275;48.492;9.214;2022-10-31T10:57:21;23.20;27.40
578;DHT22;275;48.492;9.214;2022-10-31T10:59:49;23.50;26.90
578;DHT22;275;48.492;9.214;2022-10-31T11:02:19;23.90;26.30
578;DHT22;275;48.492;9.214;2022-10-31T11:04:49;23.90;26.20
578;DHT22;275;48.492;9.214;2022-10-31T11:07:18;23.60;26.30
578;DHT22;275;48.492;9.214;2022-10-31T11:09:45;23.30;26.40
578;DHT22;275;48.492;9.214;2022-10-31T11:12:20;23.10;26.80
578;DHT22;275;48.492;9.214;2022-10-31T11:14:50;23.00;27.10
578;DHT22;275;48.492;9.214;2022-10-31T11:17:26;23.10;26.70
578;DHT22;275;48.492;9.214;2022-10-31T11:20:25;23.40;26.20
578;DHT22;275;48.492;9.214;2022-10-31T11:23:05;23.50;26.10
578;DHT22;275;48.492;9.214;2022-10-31T11:25:48;23.80;25.80
578;DHT22;275;48.492;9.214;2022-10-31T11:28:15;24.10;25.80
578;DHT22;275;48.492;9.214;2022-10-31T11:30:45;23.80;26.20
578;DHT22;275;48.492;9.214;2022-10-31T11:33:17;23.90;26.20
578;DHT22;275;48.492;9.214;2022-10-31T11:35:45;23.30;26.90
578;DHT22;275;48.492;9.214;2022-10-31T11:38:18;23.10;27.20
578;DHT22;275;48.492;9.214;2022-10-31T11:40:53;23.40;26.80
578;DHT22;275;48.492;9.214;2022-10-31T11:43:21;23.70;26.10
578;DHT22;275;48.492;9.214;2022-10-31T11:45:49;23.70;26.00
578;DHT22;275;48.492;9.214;2022-10-31T11:48:17;24.20;25.40
578;DHT22;275;48.492;9.214;2022-10-31T11:50:49;24.10;25.00
578;DHT22;275;48.492;9.214;2022-10-31T11:53:21;23.20;25.60
578;DHT22;275;48.492;9.214;2022-10-31T11:56:01;23.20;25.70
578;DHT22;275;48.492;9.214;2022-10-31T11:58:28;23.40;25.80
578;DHT22;275;48.492;9.214;2022-10-31T12:00:56;23.70;25.90
578;DHT22;275;48.492;9.214;2022-10-31T12:03:34;23.90;25.60
578;DHT22;275;48.492;9.214;2022-10-31T12:06:07;24.10;25.40
578;DHT22;275;48.492;9.214;2022-10-31T12:08:39;24.00;25.10
578;DHT22;275;48.492;9.214;2022-10-31T12:11:11;24.10;24.70
578;DHT22;275;48.492;9.214;2022-10-31T12:13:51;24.10;24.90
578;DHT22;275;48.492;9.214;2022-10-31T12:16:28;24.00;25.50
578;DHT22;275;48.492;9.214;2022-10-31T12:19:02;23.80;26.10
578;DHT22;275;48.492;9.214;2022-10-31T12:21:55;23.70;26.50
578;DHT22;275;48.492;9.214;2022-10-31T12:24:42;23.70;26.60
578;DHT22;275;48.492;9.214;2022-10-31T12:27:19;23.30;27.20
578;DHT22;275;48.492;9.214;2022-10-31T12:30:06;23.30;27.50
578;DHT22;275;48.492;9.214;2022-10-31T12:32:47;23.00;27.90
578;DHT22;275;48.492;9.214;2022-10-31T12:35:25;23.10;27.90
578;DHT22;275;48.492;9.214;2022-10-31T12:38:09;23.20;27.80
578;DHT22;275;48.492;9.214;2022-10-31T12:40:53;23.00;28.10
578;DHT22;275;48.492;9.214;2022-10-31T12:43:35;23.00;28.00
578;DHT22;275;48.492;9.214;2022-10-31T12:46:07;23.00;28.00
578;DHT22;275;48.492;9.214;2022-10-31T12:49:07;23.20;27.80
578;DHT22;275;48.492;9.214;2022-10-31T12:51:42;23.10;28.00
578;DHT22;275;48.492;9.214;2022-10-31T12:54:23;23.10;28.00
578;DHT22;275;48.492;9.214;2022-10-31T12:57:00;23.00;28.00
578;DHT22;275;48.492;9.214;2022-10-31T12:59:33;23.20;27.90
578;DHT22;275;48.492;9.214;2022-10-31T13:02:10;23.30;27.80
578;DHT22;275;48.492;9.214;2022-10-31T13:04:42;23.30;27.80
578;DHT22;275;48.492;9.214;2022-10-31T13:07:13;23.40;27.80
578;DHT22;275;48.492;9.214;2022-10-31T13:09:45;22.90;27.90
578;DHT22;275;48.492;9.214;2022-10-31T13:12:17;22.90;28.20
578;DHT22;275;48.492;9.214;2022-10-31T13:14:48;23.30;27.90
578;DHT22;275;48.492;9.214;2022-10-31T13:17:22;23.90;27.40
578;DHT22;275;48.492;9.214;2022-10-31T13:19:53;24.10;27.00
578;DHT22;275;48.492;9.214;2022-10-31T13:22:24;24.50;26.50
578;DHT22;275;48.492;9.214;2022-10-31T13:24:55;24.90;26.20
578;DHT22;275;48.492;9.214;2022-10-31T13:27:26;24.80;26.30
578;DHT22;275;48.492;9.214;2022-10-31T13:30:00;24.60;26.60
578;DHT22;275;48.492;9.214;2022-10-31T13:32:36;24.40;26.80
578;DHT22;275;48.492;9.214;2022-10-31T13:35:10;24.70;26.60
578;DHT22;275;48.492;9.214;2022-10-31T13:37:43;24.80;26.60
578;DHT22;275;48.492;9.214;2022-10-31T13:40:17;24.50;27.00
578;DHT22;275;48.492;9.214;2022-10-31T13:43:02;24.60;26.90
578;DHT22;275;48.492;9.214;2022-10-31T13:45:32;25.00;26.60
578;DHT22;275;48.492;9.214;2022-10-31T13:48:00;25.10;26.40
578;DHT22;275;48.492;9.214;2022-10-31T13:50:28;25.10;26.50
578;DHT22;275;48.492;9.214;2022-10-31T13:53:12;24.90;26.50
578;DHT22;275;48.492;9.214;2022-10-31T13:55:42;25.00;26.40
578;DHT22;275;48.492;9.214;2022-10-31T13:58:25;24.70;26.80
578;DHT22;275;48.492;9.214;2022-10-31T14:01:12;24.60;26.90
578;DHT22;275;48.492;9.214;2022-10-31T14:03:42;24.90;26.60
578;DHT22;275;48.492;9.214;2022-10-31T14:06:11;26.50;24.90
578;DHT22;275;48.492;9.214;2022-10-31T14:08:41;27.60;23.30
578;DHT22;275;48.492;9.214;2022-10-31T14:11:25;28.50;22.00
578;DHT22;275;48.492;9.214;2022-10-31T14:13:56;28.10;22.20
578;DHT22;275;48.492;9.214;2022-10-31T14:16:26;28.80;21.60
578;DHT22;275;48.492;9.214;2022-10-31T14:18:59;29.20;21.10
578;DHT22;275;48.492;9.214;2022-10-31T14:21:29;29.00;21.00
578;DHT22;275;48.492;9.214;2022-10-31T14:23:56;29.00;20.60
578;DHT22;275;48.492;9.214;2022-10-31T14:26:35;28.70;20.90
578;DHT22;275;48.492;9.214;2022-10-31T14:29:24;28.40;21.20
578;DHT22;275;48.492;9.214;2022-10-31T14:31:57;27.70;21.80
578;DHT22;275;48.492;9.214;2022-10-31T14:34:27;26.60;23.20
578;DHT22;275;48.492;9.214;2022-10-31T14:37:16;26.30;23.60
578;DHT22;275;48.492;9.214;2022-10-31T14:40:00;25.10;25.20
578;DHT22;275;48.492;9.214;2022-10-31T14:42:41;24.50;25.90
578;DHT22;275;48.492;9.214;2022-10-31T14:45:35;24.10;26.40
578;DHT22;275;48.492;9.214;2022-10-31T14:48:18;23.80;26.80
578;DHT22;275;48.492;9.214;2022-10-31T14:50:49;23.30;27.70
578;DHT22;275;48.492;9.214;2022-10-31T14:53:20;23.50;27.50
578;DHT22;275;48.492;9.214;2022-10-31T14:55:51;23.50;27.40
578;DHT22;275;48.492;9.214;2022-10-31T14:58:21;23.40;27.60
578;DHT22;275;48.492;9.214;2022-10-31T15:00:52;23.20;27.80
578;DHT22;275;48.492;9.214;2022-10-31T15:03:25;23.20;27.90
578;DHT22;275;48.492;9.214;2022-10-31T15:05:54;23.20;28.20
578;DHT22;275;48.492;9.214;2022-10-31T15:08:35;22.90;28.40
578;DHT22;275;48.492;9.214;2022-10-31T15:11:12;22.70;28.90
578;DHT22;275;48.492;9.214;2022-10-31T15:13:44;22.50;29.20
578;DHT22;275;48.492;9.214;2022-10-31T15:16:14;22.50;29.30
578;DHT22;275;48.492;9.214;2022-10-31T15:18:51;22.30;29.50
578;DHT22;275;48.492;9.214;2022-10-31T15:21:21;22.10;29.90
578;DHT22;275;48.492;9.214;2022-10-31T15:23:50;21.80;30.30
578;DHT22;275;48.492;9.214;2022-10-31T15:26:19;21.50;31.10
578;DHT22;275;48.492;9.214;2022-10-31T15:28:57;21.30;31.60
578;DHT22;275;48.492;9.214;2022-10-31T15:31:26;21.20;32.10
578;DHT22;275;48.492;9.214;2022-10-31T15:33:54;21.10;32.00
578;DHT22;275;48.492;9.214;2022-10-31T15:36:24;21.10;32.20
578;DHT22;275;48.492;9.214;2022-10-31T15:38:51;21.00;32.10
578;DHT22;275;48.492;9.214;2022-10-31T15:41:23;20.80;32.70
578;DHT22;275;48.492;9.214;2022-10-31T15:43:50;20.50;33.80
578;DHT22;275;48.492;9.214;2022-10-31T15:46:18;20.40;34.50
578;DHT22;275;48.492;9.214;2022-10-31T15:48:47;20.50;34.30
578;DHT22;275;48.492;9.214;2022-10-31T15:51:14;20.80;33.20
578;DHT22;275;48.492;9.214;2022-10-31T15:53:48;21.00;33.00
578;DHT22;275;48.492;9.214;2022-10-31T15:56:20;21.00;32.90
578;DHT22;275;48.492;9.214;2022-10-31T15:58:49;20.80;34.10
578;DHT22;275;48.492;9.214;2022-10-31T16:01:22;20.40;36.10
578;DHT22;275;48.492;9.214;2022-10-31T16:04:01;20.30;35.70
578;DHT22;275;48.492;9.214;2022-10-31T16:06:28;19.80;37.10
578;DHT22;275;48.492;9.214;2022-10-31T16:08:55;19.60;37.90
578;DHT22;275;48.492;9.214;2022-10-31T16:11:24;19.90;37.30
578;DHT22;275;48.492;9.214;2022-10-31T16:13:57;20.20;36.80
578;DHT22;275;48.492;9.214;2022-10-31T16:16:25;20.20;36.90
578;DHT22;275;48.492;9.214;2022-10-31T16:18:53;20.00;37.50
578;DHT22;275;48.492;9.214;2022-10-31T16:21:28;20.10;37.20
578;DHT22;275;48.492;9.214;2022-10-31T16:24:00;19.90;38.40
578;DHT22;275;48.492;9.214;2022-10-31T16:26:27;19.50;38.50
578;DHT22;275;48.492;9.214;2022-10-31T16:28:55;19.70;38.20
578;DHT22;275;48.492;9.214;2022-10-31T16:31:30;19.40;38.90
578;DHT22;275;48.492;9.214;2022-10-31T16:34:10;18.70;40.70
578;DHT22;275;48.492;9.214;2022-10-31T16:36:40;18.80;40.80
578;DHT22;275;48.492;9.214;2022-10-31T16:39:07;19.20;39.80
578;DHT22;275;48.492;9.214;2022-10-31T16:41:37;19.00;40.30
578;DHT22;275;48.492;9.214;2022-10-31T16:44:14;19.10;40.30
578;DHT22;275;48.492;9.214;2022-10-31T16:46:41;19.00;40.40
578;DHT22;275;48.492;9.214;2022-10-31T16:49:16;19.00;40.20
578;DHT22;275;48.492;9.214;2022-10-31T16:51:44;18.70;41.20
578;DHT22;275;48.492;9.214;2022-10-31T16:54:11;18.70;41.10
578;DHT22;275;48.492;9.214;2022-10-31T16:56:38;19.00;40.40
578;DHT22;275;48.492;9.214;2022-10-31T16:59:09;19.00;39.90
578;DHT22;275;48.492;9.214;2022-10-31T17:01:39;19.00;39.80
578;DHT22;275;48.492;9.214;2022-10-31T17:04:07;19.00;40.00